DW7431 Cala Millor ES current weather conditions

sailwx.info

Wind from 067 at 8 knots gusting 10

Air temperature 5.0° C
Dewpoint -0.0° C

Last reported at 2017-Jan-17 07:01 UTC.
Time now 2017-Jan-17 09:01 UTC

Location: N 39°36' E 003°22'.
View on Google Maps.

See reports from other nearby stations

  
Tides and Currents Weather Stations Pressure Air Temp Water Temp Dewpoint Dewpoint Depression Visibility Wind Speed Wind Dir Waves Ship Positions
date/time (UTC)wind fromknots sea level pressurealtimeterstation pressurevisibilityair tempwater tempwave heightnotes
2017-Jan-17 07:01 067 8 gusting 10 5.0
2017-Jan-17 06:01 045 13 gusting 20 5.6
2017-Jan-17 02:01 045 12 gusting 17 6.1
2017-Jan-17 01:01 067 13 gusting 28 8.3
2017-Jan-17 00:01 022 13 gusting 26 8.3
2017-Jan-16 22:01 067 9 gusting 20 8.3
2017-Jan-16 20:01 045 2 gusting 3 17.8
2017-Jan-16 18:01 022 6 gusting 10 17.8
2017-Jan-16 16:01 022 4 gusting 6 17.8
2017-Jan-16 15:01 360 3 gusting 4 17.8
2017-Jan-16 13:01 067 2 gusting 5 16.7
2017-Jan-16 12:01 067 2 gusting 4 13.3
2017-Jan-16 10:01 315 2 10.6
2017-Jan-16 07:01 315 3 gusting 3 4.4
2017-Jan-16 06:01 360 5.6
2017-Jan-16 05:01 045 6.1
2017-Jan-16 03:01 315 6 gusting 7 12.2
2017-Jan-16 02:01 067 4 gusting 1 12.2
2017-Jan-16 01:01 067 5 gusting 4 12.2
2017-Jan-16 00:01 022 7 gusting 13 12.2
2017-Jan-15 23:01 045 6 gusting 11 12.2
2017-Jan-15 22:01 067 6 gusting 9 12.2
2017-Jan-15 20:01 045 4 gusting 9 12.2
2017-Jan-15 17:01 045 7 gusting 12 12.2
2017-Jan-15 16:01 067 6 gusting 6 12.2
2017-Jan-15 15:01 045 9 gusting 11 12.2
2017-Jan-15 14:01 022 9 gusting 23 12.2
2017-Jan-15 13:01 022 8 gusting 20 10.6